Trenton, Utah
Current Conditions -  °F | °C
As of 8:51 PM on Wednesday 28 Jan 2015 (Local Time) from KLGU Reporting Station
Haze Haze  
Wind Chill: 38°   Ceiling: 3000
Heat Index: 38°   Visibility: 3mi
Dew Point: 37°   Wind: 3mph
Humidity: 97%   Direction: 210°SSW
Pressure: 30.36"   Gusts: NA
Location:  41.92°N, 111.94°W
Report Text: KLGU 290351Z AUTO 21003KT 3SM BR OVC030 03/03 A3036 RMK AO2 SLP285 T00330028
Loading
Personal Weather Stations






























Interactive Weather Map New forecast layout! Learn more

10-Day Weather Forecast

Advertisements
Track Severe Weather on mobile